Decoded Metar for LDZD (ZADAR in CROATIA) (IATA:ZAD) | Meteo·Mobile Aviation Weather
aviador You're here:

LDZD Decoded Metar

ZADAR in CROATIA
Report Time2018-08-22 05:30:00
UTC Time2018-08-22 05:38:29
Flight Rules vfr VFR
Wind070° at 07 kt
W.Decomp.*RWY 04: 6.2 kt HW 3.3 kt RCW
RWY 14: 2.2 kt HW 6.7 kt LCW
W.Rank070° ranks 5
Current wind is below 070° avg. (7.4)
Visibility9999 m
Phenomena:N/A
Clouds:N/A
Expected CloudBase > 5,200 ft AGL from Temp-Dew spread
CeilingNone
Temp27°C (ISA +13)
Dew Point14°C (45% RH)
Heat Index27.1°C
AAT25.8°C
QNH1015 hPa
Density Alt1,870 ft
Elevation276 ft
Report Wrong Elevation
Raw Report
METAR LDZD 220530Z 07007KT 020V130 CAVOK 27/14 Q1015 NOSIG=

Extra information for LDZD:More info

Metar Taf Metar & Taf Last 4 Metars F.Rules Stats Wind Profile Meteogram Temp Stats Airport Information Weather charts Add Link Nearby VenuesMetar ALERT Operation Metar Decoded Social comments